Time;durP1;ratioP1;P1;durP2;ratioP2;P2;SDS_P1;SDS_P2;PMS_P1;PMS_P2;Temp;Humidity;BMP_temperature;BMP_pressure;BME280_temperature;BME280_humidity;BME280_pressure;Samples;Min_cycle;Max_cycle;Signal;HPM_P1;HPM_P2
2021/11/20 00:01:56;;;;;;;37.63;29.23;;;6.20;99.90;;;;;;5105737;28;20775;-79
2021/11/20 00:04:23;;;;;;;34.17;27.10;;;6.20;99.90;;;;;;5121884;27;20197;-79
2021/11/20 00:06:53;;;;;;;38.50;28.20;;;6.20;99.90;;;;;;5098073;28;20202;-79
2021/11/20 00:09:22;;;;;;;36.23;28.07;;;6.20;99.90;;;;;;5094717;27;20208;-79
2021/11/20 00:11:52;;;;;;;30.97;27.37;;;6.20;99.90;;;;;;5130597;27;20221;-79
2021/11/20 00:14:22;;;;;;;30.07;24.77;;;6.20;99.90;;;;;;5106962;27;20239;-79
2021/11/20 00:16:51;;;;;;;32.77;25.53;;;6.20;99.90;;;;;;5105827;28;20258;-78
2021/11/20 00:19:19;;;;;;;29.03;25.93;;;6.20;99.90;;;;;;5120749;27;20200;-79
2021/11/20 00:21:49;;;;;;;29.50;24.57;;;6.20;99.90;;;;;;5132276;27;20225;-78
2021/11/20 00:24:21;;;;;;;27.67;24.63;;;6.20;99.90;;;;;;5106707;27;20790;-78
2021/11/20 00:26:48;;;;;;;29.60;23.67;;;6.20;99.90;;;;;;5134047;27;20212;-79
2021/11/20 00:29:38;;;;;;;32.20;25.00;;;6.20;99.90;;;;;;5128751;27;20246;-78
2021/11/20 00:32:10;;;;;;;33.03;24.53;;;6.20;99.90;;;;;;5093173;27;20255;-79
2021/11/20 00:34:39;;;;;;;31.03;26.17;;;6.30;99.90;;;;;;5102809;27;20192;-78
2021/11/20 00:37:06;;;;;;;27.47;24.53;;;6.30;99.90;;;;;;5123277;27;20247;-78
2021/11/20 00:39:35;;;;;;;28.07;24.90;;;6.30;99.90;;;;;;5100626;28;20198;-79
2021/11/20 00:42:05;;;;;;;29.03;25.77;;;6.30;99.90;;;;;;5095770;28;20592;-78
2021/11/20 00:44:32;;;;;;;34.37;26.17;;;6.20;99.90;;;;;;5095412;28;20265;-79
2021/11/20 00:46:59;;;;;;;29.33;25.67;;;6.30;99.90;;;;;;5090402;28;20229;-78
2021/11/20 00:49:28;;;;;;;30.37;25.43;;;6.30;99.90;;;;;;5115452;27;20673;-79
2021/11/20 00:51:55;;;;;;;35.53;28.40;;;6.30;99.90;;;;;;5127508;27;20592;-78
2021/11/20 00:54:23;;;;;;;37.63;28.90;;;6.30;99.90;;;;;;5106737;27;20202;-79
2021/11/20 00:56:50;;;;;;;37.67;28.50;;;6.30;99.90;;;;;;5130427;27;20222;-78
2021/11/20 00:59:17;;;;;;;33.97;27.77;;;6.30;99.90;;;;;;5105872;27;20606;-78
2021/11/20 01:01:47;;;;;;;33.87;28.20;;;6.30;99.90;;;;;;5106027;28;20714;-79
2021/11/20 01:04:15;;;;;;;36.17;27.30;;;6.30;99.90;;;;;;5102095;27;20198;-78
2021/11/20 01:06:44;;;;;;;29.87;25.20;;;6.30;99.90;;;;;;5103661;28;20646;-78
2021/11/20 01:09:15;;;;;;;31.87;25.63;;;6.30;99.90;;;;;;5101470;28;20194;-78
2021/11/20 01:11:45;;;;;;;34.27;25.67;;;6.30;99.90;;;;;;5098130;28;20222;-78
2021/11/20 01:14:16;;;;;;;38.50;27.80;;;6.30;99.90;;;;;;5095013;28;20250;-78
2021/11/20 01:16:46;;;;;;;29.30;25.50;;;6.20;99.90;;;;;;5105136;27;20223;-78
2021/11/20 01:19:14;;;;;;;30.97;24.13;;;6.20;99.90;;;;;;5101699;28;20285;-78
2021/11/20 01:22:23;;;;;;;32.70;25.57;;;6.20;99.90;;;;;;5102531;27;20249;-78
2021/11/20 01:25:10;;;;;;;28.23;24.53;;;6.20;99.90;;;;;;5085977;27;20284;-78
2021/11/20 01:27:51;;;;;;;29.43;24.83;;;6.20;99.90;;;;;;5103201;28;20292;-78
2021/11/20 01:30:47;;;;;;;26.97;22.93;;;6.30;99.90;;;;;;5104541;27;20203;-79
2021/11/20 01:33:19;;;;;;;28.00;23.90;;;6.20;99.90;;;;;;5104270;27;20238;-78
2021/11/20 01:35:48;;;;;;;28.10;24.37;;;6.30;99.90;;;;;;5092330;28;20255;-78
2021/11/20 01:38:19;;;;;;;26.47;23.37;;;6.30;99.90;;;;;;5094987;27;20217;-78
2021/11/20 01:40:48;;;;;;;30.93;24.83;;;6.30;99.90;;;;;;5096772;28;20201;-78
2021/11/20 01:43:41;;;;;;;26.73;23.93;;;6.30;99.90;;;;;;5097651;27;20231;-79
2021/11/20 01:46:17;;;;;;;26.70;23.13;;;6.30;99.90;;;;;;5106640;27;20200;-78
2021/11/20 01:49:10;;;;;;;28.50;23.17;;;6.20;99.90;;;;;;5103196;28;20248;-78
2021/11/20 01:51:40;;;;;;;26.67;23.67;;;6.30;99.90;;;;;;5118443;27;20286;-78
2021/11/20 01:54:20;;;;;;;27.53;24.40;;;6.30;99.90;;;;;;5103552;27;20198;-78
2021/11/20 01:57:12;;;;;;;25.97;22.83;;;6.30;99.90;;;;;;5127150;27;20201;-78
2021/11/20 01:59:44;;;;;;;26.57;23.57;;;6.30;99.90;;;;;;5098063;28;20202;-78
2021/11/20 02:02:39;;;;;;;27.40;24.43;;;6.30;99.90;;;;;;5105330;27;20297;-78
2021/11/20 02:05:27;;;;;;;27.70;23.20;;;6.30;99.90;;;;;;5115087;27;20193;-78
2021/11/20 02:08:06;;;;;;;28.77;23.90;;;6.20;99.90;;;;;;5114449;27;20679;-79
2021/11/20 02:10:39;;;;;;;27.47;24.43;;;6.30;99.90;;;;;;5108999;28;20205;-78
2021/11/20 02:13:09;;;;;;;27.83;24.37;;;6.20;99.90;;;;;;5124955;27;20312;-78
2021/11/20 02:15:40;;;;;;;27.67;24.53;;;6.30;99.90;;;;;;5104256;27;20246;-78
2021/11/20 02:18:09;;;;;;;34.27;26.43;;;6.20;99.90;;;;;;5100124;28;20293;-78
2021/11/20 02:20:42;;;;;;;29.80;25.07;;;6.20;99.90;;;;;;5104443;27;20209;-78
2021/11/20 02:23:19;;;;;;;26.63;23.83;;;6.30;99.90;;;;;;5092114;27;20210;-78
2021/11/20 02:25:46;;;;;;;37.27;27.23;;;6.20;99.90;;;;;;5103033;28;20220;-78
2021/11/20 02:28:36;;;;;;;33.77;26.97;;;6.20;99.90;;;;;;5103416;28;20209;-78
2021/11/20 02:31:15;;;;;;;28.83;25.63;;;6.20;99.90;;;;;;5094100;28;20191;-78
2021/11/20 02:33:45;;;;;;;34.77;26.47;;;6.20;99.90;;;;;;5087439;28;20686;-78
2021/11/20 02:36:14;;;;;;;34.87;26.83;;;6.20;99.90;;;;;;5096681;28;20201;-78
2021/11/20 02:38:45;;;;;;;28.03;25.00;;;6.20;99.90;;;;;;5100495;28;20274;-78
2021/11/20 02:41:14;;;;;;;28.97;24.77;;;6.20;99.90;;;;;;5101969;28;20732;-78
2021/11/20 02:43:46;;;;;;;35.57;26.80;;;6.20;99.90;;;;;;5098342;28;20283;-78
2021/11/20 02:46:20;;;;;;;32.40;26.37;;;6.20;99.90;;;;;;5102774;28;20784;-78
2021/11/20 02:48:48;;;;;;;33.97;27.70;;;6.30;99.90;;;;;;5099089;28;20297;-78
2021/11/20 02:51:18;;;;;;;27.70;20.13;;;6.30;99.90;;;;;;5093258;28;20589;-78
2021/11/20 02:53:47;;;;;;;28.10;18.87;;;6.20;99.90;;;;;;5100333;28;20205;-79
2021/11/20 02:56:19;;;;;;;31.07;18.87;;;6.30;99.90;;;;;;5102148;28;20198;-78
2021/11/20 02:58:46;;;;;;;27.37;18.07;;;6.30;99.90;;;;;;5100222;28;20655;-78
2021/11/20 03:01:19;;;;;;;27.57;20.87;;;6.30;99.90;;;;;;5102057;28;20219;-78
2021/11/20 03:03:46;;;;;;;26.80;18.57;;;6.30;99.90;;;;;;5128075;28;20201;-78
2021/11/20 03:06:13;;;;;;;31.20;21.90;;;6.30;99.90;;;;;;5092152;28;20659;-77
2021/11/20 03:08:42;;;;;;;32.10;25.90;;;6.30;99.90;;;;;;5095208;28;20205;-78
2021/11/20 03:11:13;;;;;;;29.27;17.73;;;6.30;99.90;;;;;;5095426;28;20548;-78
2021/11/20 03:13:43;;;;;;;32.37;25.73;;;6.30;99.90;;;;;;5096826;28;20210;-78
2021/11/20 03:16:15;;;;;;;28.60;24.87;;;6.30;99.90;;;;;;5093020;28;20197;-78
2021/11/20 03:18:44;;;;;;;30.93;21.47;;;6.30;99.90;;;;;;5093126;28;20218;-78
2021/11/20 03:21:12;;;;;;;35.00;20.70;;;6.30;99.90;;;;;;5094481;28;20723;-78
2021/11/20 03:23:42;;;;;;;28.17;18.90;;;6.30;99.90;;;;;;5100237;28;20275;-78
2021/11/20 03:26:09;;;;;;;28.27;21.83;;;6.30;99.90;;;;;;5096808;28;20205;-78
2021/11/20 03:28:36;;;;;;;33.17;23.97;;;6.30;99.90;;;;;;5103458;28;20687;-78
2021/11/20 03:31:04;;;;;;;33.40;20.47;;;6.30;99.90;;;;;;5093058;28;20205;-77
2021/11/20 03:33:31;;;;;;;29.60;19.67;;;6.30;99.90;;;;;;5099952;28;20271;-79
2021/11/20 03:35:59;;;;;;;28.93;18.87;;;6.40;99.90;;;;;;5102336;28;20198;-80
2021/11/20 03:38:29;;;;;;;32.30;21.03;;;6.40;99.90;;;;;;5101340;28;20245;-79
2021/11/20 03:41:03;;;;;;;32.00;21.20;;;6.30;99.90;;;;;;5091676;28;20247;-79
2021/11/20 03:43:31;;;;;;;31.03;21.57;;;6.30;99.90;;;;;;5089858;28;20712;-79
2021/11/20 03:45:58;;;;;;;32.23;24.13;;;6.30;99.90;;;;;;5089897;28;20202;-83
2021/11/20 03:48:25;;;;;;;33.60;24.10;;;6.30;99.90;;;;;;5087911;28;20194;-84
2021/11/20 03:50:52;;;;;;;32.43;26.90;;;6.30;99.90;;;;;;5097763;28;20199;-82
2021/11/20 03:53:21;;;;;;;28.87;17.57;;;6.30;99.90;;;;;;5121046;27;20215;-82
2021/11/20 03:55:51;;;;;;;27.60;18.57;;;6.30;99.90;;;;;;5095890;27;20258;-77
2021/11/20 03:58:20;;;;;;;35.77;25.33;;;6.30;99.90;;;;;;5079862;28;20323;-80
2021/11/20 04:00:53;;;;;;;39.70;29.60;;;6.30;99.90;;;;;;5092269;28;20717;-79
2021/11/20 04:03:21;;;;;;;32.97;27.00;;;6.20;99.90;;;;;;5083960;28;20228;-79
2021/11/20 04:05:49;;;;;;;33.57;27.67;;;6.20;99.90;;;;;;5084596;28;20573;-80
2021/11/20 04:08:16;;;;;;;34.30;21.83;;;6.20;99.90;;;;;;5086981;27;20201;-81
2021/11/20 04:10:44;;;;;;;30.30;21.13;;;6.20;99.90;;;;;;5092367;28;20285;-79
2021/11/20 04:13:11;;;;;;;32.20;22.83;;;6.20;99.90;;;;;;5096189;28;20672;-79
2021/11/20 04:15:38;;;;;;;31.07;23.73;;;6.20;99.90;;;;;;5098848;28;20200;-80
2021/11/20 04:18:05;;;;;;;29.93;18.13;;;6.20;99.90;;;;;;5107404;28;20214;-80
2021/11/20 04:20:33;;;;;;;34.30;20.23;;;6.20;99.90;;;;;;5088613;28;20197;-80
2021/11/20 04:23:00;;;;;;;31.70;22.50;;;6.20;99.90;;;;;;5094242;28;20260;-80
2021/11/20 04:25:28;;;;;;;29.93;18.37;;;6.20;99.90;;;;;;5094639;28;20201;-79
2021/11/20 04:28:02;;;;;;;32.50;21.97;;;6.20;99.90;;;;;;5094100;28;20516;-82
2021/11/20 04:30:38;;;;;;;28.97;19.10;;;6.20;99.90;;;;;;5117006;27;20225;-79
2021/11/20 04:33:05;;;;;;;31.83;23.00;;;6.20;99.90;;;;;;5093985;28;20226;-79
2021/11/20 04:35:33;;;;;;;33.17;22.63;;;6.10;99.90;;;;;;5096681;27;20198;-79
2021/11/20 04:38:01;;;;;;;29.83;21.43;;;6.20;99.90;;;;;;5101451;28;20217;-79
2021/11/20 04:40:29;;;;;;;30.00;22.73;;;6.10;99.90;;;;;;5097416;27;20193;-79
2021/11/20 04:42:59;;;;;;;32.67;22.13;;;6.20;99.90;;;;;;5095542;28;20234;-79
2021/11/20 04:45:28;;;;;;;32.23;23.83;;;6.10;99.90;;;;;;5104103;27;20193;-79
2021/11/20 04:47:56;;;;;;;32.37;23.30;;;6.10;99.90;;;;;;5098269;28;20284;-79
2021/11/20 04:50:29;;;;;;;31.70;22.87;;;6.10;99.90;;;;;;5087301;28;20201;-79
2021/11/20 04:52:56;;;;;;;27.73;22.87;;;6.10;99.90;;;;;;5103355;28;20228;-79
2021/11/20 04:55:23;;;;;;;29.93;23.10;;;6.10;99.90;;;;;;5101871;28;20202;-78
2021/11/20 04:57:53;;;;;;;28.50;21.17;;;6.10;99.90;;;;;;5103542;28;20308;-79
2021/11/20 05:00:26;;;;;;;30.00;23.00;;;6.10;99.90;;;;;;5106220;27;20681;-80
2021/11/20 05:02:57;;;;;;;31.37;22.80;;;6.10;99.90;;;;;;5124709;27;20716;-79
2021/11/20 05:05:33;;;;;;;34.70;23.20;;;6.20;99.90;;;;;;5096784;28;20753;-79
2021/11/20 05:08:00;;;;;;;28.93;22.13;;;6.20;99.90;;;;;;5092977;28;20664;-79
2021/11/20 05:10:27;;;;;;;29.43;21.90;;;6.20;99.90;;;;;;5096254;28;20246;-79
2021/11/20 05:12:54;;;;;;;29.43;21.13;;;6.20;99.90;;;;;;5094967;28;20309;-79
2021/11/20 05:15:30;;;;;;;29.70;21.87;;;6.20;99.90;;;;;;5086879;28;20194;-79
2021/11/20 05:17:58;;;;;;;32.83;24.67;;;6.20;99.90;;;;;;5088532;28;20222;-79
2021/11/20 05:20:39;;;;;;;30.27;19.30;;;6.20;99.90;;;;;;5116763;27;20198;-79
2021/11/20 05:23:07;;;;;;;33.60;19.90;;;6.10;99.90;;;;;;5094792;28;20223;-79
2021/11/20 05:25:35;;;;;;;31.53;18.43;;;6.10;99.90;;;;;;5096969;27;20258;-79
2021/11/20 05:28:02;;;;;;;30.47;17.60;;;6.20;99.90;;;;;;5093938;28;20681;-79
2021/11/20 05:30:35;;;;;;;30.77;17.83;;;6.10;99.90;;;;;;5116876;27;20198;-79
2021/11/20 05:33:05;;;;;;;33.00;19.73;;;6.10;99.90;;;;;;5100391;27;20697;-79
2021/11/20 05:35:33;;;;;;;29.13;19.73;;;6.10;99.90;;;;;;5096465;28;20253;-79
2021/11/20 05:38:00;;;;;;;35.33;24.93;;;6.10;99.90;;;;;;5085956;28;20603;-79
2021/11/20 05:40:28;;;;;;;38.53;25.67;;;6.10;99.90;;;;;;5096334;27;20201;-79
2021/11/20 05:42:57;;;;;;;28.93;16.57;;;6.10;99.90;;;;;;5101292;28;20668;-79
2021/11/20 05:45:27;;;;;;;30.40;22.67;;;6.10;99.90;;;;;;5085535;28;20289;-79
2021/11/20 05:47:56;;;;;;;30.03;20.27;;;6.10;99.90;;;;;;5087079;28;20226;-78
2021/11/20 05:50:28;;;;;;;26.27;18.07;;;6.10;99.90;;;;;;5090378;28;20686;-78
2021/11/20 05:52:56;;;;;;;29.47;21.03;;;6.10;99.90;;;;;;5094047;28;20217;-78
2021/11/20 05:55:27;;;;;;;29.07;17.60;;;6.20;99.90;;;;;;5127042;27;20200;-78
2021/11/20 05:57:55;;;;;;;27.43;15.50;;;6.10;99.90;;;;;;5099345;28;20251;-78
2021/11/20 06:00:24;;;;;;;26.23;18.20;;;6.20;99.90;;;;;;5102727;28;20204;-79
2021/11/20 06:02:54;;;;;;;25.07;17.20;;;6.10;99.90;;;;;;5095360;28;20241;-79
2021/11/20 06:05:30;;;;;;;26.37;20.10;;;6.20;99.90;;;;;;5088360;28;20287;-79
2021/11/20 06:07:56;;;;;;;27.10;20.47;;;6.10;99.90;;;;;;5102092;28;20201;-79
2021/11/20 06:10:23;;;;;;;30.90;26.50;;;6.10;99.90;;;;;;5091756;28;20221;-79
2021/11/20 06:12:51;;;;;;;27.43;24.50;;;6.10;99.90;;;;;;5094528;28;20305;-79
2021/11/20 06:15:20;;;;;;;30.00;25.77;;;6.10;99.90;;;;;;5095712;27;20193;-79
2021/11/20 06:17:47;;;;;;;29.60;20.10;;;6.20;99.90;;;;;;5083202;28;20201;-79
2021/11/20 06:20:14;;;;;;;30.57;18.47;;;6.10;99.90;;;;;;5103472;28;20668;-79
2021/11/20 06:22:43;;;;;;;29.77;16.10;;;6.10;99.90;;;;;;5095436;28;20228;-79
2021/11/20 06:25:11;;;;;;;30.03;22.33;;;6.10;99.90;;;;;;5115796;27;20212;-79
2021/11/20 06:27:39;;;;;;;32.50;24.90;;;6.20;99.90;;;;;;5082888;28;20216;-80
2021/11/20 06:30:13;;;;;;;28.20;24.97;;;6.10;99.90;;;;;;5096360;28;20205;-79
2021/11/20 06:32:41;;;;;;;28.67;24.07;;;6.20;99.90;;;;;;5082635;28;20270;-79
2021/11/20 06:35:29;;;;;;;27.90;25.10;;;6.20;99.90;;;;;;5115018;27;20225;-79
2021/11/20 06:38:10;;;;;;;30.87;24.60;;;6.20;99.90;;;;;;5086420;28;20244;-80
2021/11/20 06:40:41;;;;;;;33.77;28.77;;;6.20;99.90;;;;;;5086070;28;20193;-79
2021/11/20 06:43:13;;;;;;;29.40;24.37;;;6.20;99.90;;;;;;5081394;28;20727;-79
2021/11/20 06:45:43;;;;;;;29.13;24.87;;;6.20;99.90;;;;;;5113331;28;20249;-79
2021/11/20 06:48:10;;;;;;;30.60;25.93;;;6.20;99.90;;;;;;5079251;28;20701;-81
2021/11/20 06:50:41;;;;;;;29.20;25.77;;;6.20;99.90;;;;;;5084696;28;20574;-78
2021/11/20 06:53:29;;;;;;;28.47;25.37;;;6.20;99.90;;;;;;5110940;28;20217;-81
2021/11/20 06:56:25;;;;;;;26.40;22.47;;;6.20;99.90;;;;;;5112516;28;20201;-80
2021/11/20 07:00:25;;;;;;;29.43;23.97;;;6.20;99.90;;;;;;5090312;28;20231;-78
2021/11/20 07:02:36;;;;;;;26.50;23.30;;;6.30;99.90;;;;;;5082927;28;20359;-78
2021/11/20 07:05:05;;;;;;;28.73;23.00;;;6.30;99.90;;;;;;5083741;28;20190;-78
2021/11/20 07:07:34;;;;;;;24.87;21.90;;;6.20;99.90;;;;;;5091203;28;20206;-78
2021/11/20 07:10:02;;;;;;;26.40;23.50;;;6.30;99.90;;;;;;5093086;28;20224;-78
2021/11/20 07:12:29;;;;;;;26.67;22.93;;;6.30;99.90;;;;;;5109759;28;20226;-78
2021/11/20 07:14:56;;;;;;;26.03;23.20;;;6.30;99.90;;;;;;5100366;28;20320;-77
2021/11/20 07:17:23;;;;;;;24.90;22.27;;;6.30;99.90;;;;;;5091818;28;20693;-78
2021/11/20 07:20:16;;;;;;;25.10;20.33;;;6.30;99.90;;;;;;5085462;28;20315;-78
2021/11/20 07:23:02;;;;;;;22.13;19.27;;;6.30;99.90;;;;;;5115521;28;20224;-76
2021/11/20 07:25:33;;;;;;;21.13;18.93;;;6.30;99.90;;;;;;5093676;28;20724;-80
2021/11/20 07:28:00;;;;;;;22.30;19.97;;;6.40;99.90;;;;;;5076995;28;20201;-80
2021/11/20 07:30:30;;;;;;;22.13;19.77;;;6.40;99.90;;;;;;5084296;28;20658;-79
2021/11/20 07:33:00;;;;;;;25.17;20.67;;;6.30;99.90;;;;;;5090487;28;20217;-80
2021/11/20 07:35:29;;;;;;;22.00;19.37;;;6.30;99.90;;;;;;5098652;27;20723;-78
2021/11/20 07:37:57;;;;;;;22.70;19.50;;;6.30;99.90;;;;;;5101705;28;20735;-79
2021/11/20 07:40:26;;;;;;;20.47;18.43;;;6.30;99.90;;;;;;5094355;27;20193;-80
2021/11/20 07:42:55;;;;;;;21.83;19.53;;;6.30;99.90;;;;;;5108362;27;20212;-80
2021/11/20 07:45:41;;;;;;;23.03;20.80;;;6.30;99.90;;;;;;5125959;27;20204;-79
2021/11/20 07:48:11;;;;;;;23.70;21.53;;;6.40;99.90;;;;;;5089246;28;20654;-79
2021/11/20 07:50:40;;;;;;;23.07;20.80;;;6.40;99.90;;;;;;5096447;28;20202;-79
2021/11/20 07:53:18;;;;;;;22.60;20.30;;;6.50;99.90;;;;;;5096695;27;20249;-80
2021/11/20 07:55:47;;;;;;;22.40;20.20;;;6.50;99.90;;;;;;5106993;27;20247;-80
2021/11/20 07:58:16;;;;;;;23.30;20.90;;;6.50;99.90;;;;;;5101811;27;20234;-80
2021/11/20 08:00:45;;;;;;;24.67;22.33;;;6.60;99.90;;;;;;5080518;28;20198;-80
2021/11/20 08:03:14;;;;;;;24.43;18.77;;;6.60;99.90;;;;;;5093320;28;20238;-80
2021/11/20 08:05:53;;;;;;;24.30;22.00;;;6.60;99.90;;;;;;5084934;28;20368;-79
2021/11/20 08:08:41;;;;;;;23.10;20.93;;;6.70;99.90;;;;;;5088966;28;20210;-80
2021/11/20 08:11:19;;;;;;;21.77;19.67;;;6.70;99.90;;;;;;5087609;28;20210;-80
2021/11/20 08:13:48;;;;;;;21.97;19.77;;;6.80;99.90;;;;;;5108010;28;20193;-80
2021/11/20 08:16:25;;;;;;;22.43;20.27;;;6.80;99.90;;;;;;5094848;27;20202;-79
2021/11/20 08:19:01;;;;;;;21.93;19.73;;;6.80;99.90;;;;;;5098615;28;20213;-78
2021/11/20 08:21:48;;;;;;;22.97;20.53;;;6.80;99.90;;;;;;5057239;27;20221;-80
2021/11/20 08:24:19;;;;;;;23.03;20.77;;;6.90;99.90;;;;;;5096956;27;20200;-78
2021/11/20 08:26:47;;;;;;;22.80;20.43;;;6.90;99.90;;;;;;5101590;27;20210;-78
2021/11/20 08:29:18;;;;;;;24.33;21.53;;;6.90;99.90;;;;;;5098933;27;20218;-79
2021/11/20 08:31:48;;;;;;;23.33;21.00;;;7.00;99.90;;;;;;5094563;28;20811;-79
2021/11/20 08:34:56;;;;;;;23.63;20.20;;;7.00;99.90;;;;;;5087176;27;20216;-80
2021/11/20 08:37:46;;;;;;;22.03;19.73;;;7.10;99.90;;;;;;5071748;28;20218;-79
2021/11/20 08:40:20;;;;;;;22.60;20.17;;;7.10;99.90;;;;;;5096125;27;20761;-79
2021/11/20 08:42:50;;;;;;;23.73;21.20;;;7.10;99.90;;;;;;5083329;28;20716;-79
2021/11/20 08:45:22;;;;;;;22.93;20.50;;;7.10;99.90;;;;;;5086412;28;20691;-79
2021/11/20 08:47:53;;;;;;;18.00;12.07;;;7.10;99.90;;;;;;5095383;28;20266;-79
2021/11/20 08:50:24;;;;;;;20.03;13.87;;;7.10;99.90;;;;;;5087910;28;20194;-79
2021/11/20 08:52:50;;;;;;;21.03;15.77;;;7.20;99.90;;;;;;5089814;28;20265;-80
2021/11/20 08:55:17;;;;;;;19.70;13.17;;;7.20;99.90;;;;;;5088065;28;20202;-79
2021/11/20 08:57:46;;;;;;;19.50;17.40;;;7.30;99.90;;;;;;5097354;27;20198;-81
2021/11/20 09:00:30;;;;;;;18.10;14.70;;;7.30;99.90;;;;;;5089962;27;20226;-79
2021/11/20 09:03:23;;;;;;;23.13;20.57;;;7.40;99.90;;;;;;5101710;28;20364;-80
2021/11/20 09:05:53;;;;;;;23.13;20.73;;;7.40;99.90;;;;;;5092140;28;20670;-80
2021/11/20 09:08:25;;;;;;;20.47;17.67;;;7.40;99.90;;;;;;5129367;27;20199;-80
2021/11/20 09:10:58;;;;;;;19.00;16.57;;;7.40;99.90;;;;;;5102594;28;20206;-80
2021/11/20 09:13:31;;;;;;;17.07;12.17;;;7.50;99.90;;;;;;5097501;27;20714;-80
2021/11/20 09:16:04;;;;;;;17.73;11.77;;;7.50;99.90;;;;;;5101936;28;20804;-80
2021/11/20 09:18:34;;;;;;;20.23;14.90;;;7.60;99.90;;;;;;5105711;27;20200;-78
2021/11/20 09:21:05;;;;;;;17.10;13.13;;;7.70;99.90;;;;;;5080901;28;20217;-78
2021/11/20 09:24:01;;;;;;;18.10;16.20;;;7.80;99.90;;;;;;5087505;27;20225;-79
2021/11/20 09:26:33;;;;;;;15.70;10.77;;;7.80;99.90;;;;;;5090957;27;20195;-79
2021/11/20 09:29:03;;;;;;;17.70;12.07;;;7.90;99.90;;;;;;5102395;28;20224;-79
2021/11/20 09:31:36;;;;;;;19.50;12.07;;;7.90;99.90;;;;;;5094519;28;20198;-79
2021/11/20 09:34:03;;;;;;;15.23;11.30;;;7.90;99.90;;;;;;5093680;28;20203;-79
2021/11/20 09:36:31;;;;;;;15.60;11.23;;;8.00;99.90;;;;;;5093957;28;20207;-79
2021/11/20 09:39:20;;;;;;;18.37;14.60;;;8.00;99.90;;;;;;5113095;27;20202;-79
2021/11/20 09:42:27;;;;;;;19.23;17.23;;;8.00;99.90;;;;;;5094052;28;20261;-79
2021/11/20 09:44:58;;;;;;;18.10;16.30;;;8.00;99.90;;;;;;5084698;28;20210;-78
2021/11/20 09:47:29;;;;;;;16.07;14.37;;;8.10;99.90;;;;;;5090388;28;20291;-79
2021/11/20 09:50:06;;;;;;;16.70;14.83;;;8.20;99.90;;;;;;5090381;28;20197;-79
2021/11/20 09:52:33;;;;;;;13.33;10.67;;;8.20;99.90;;;;;;5089490;28;20598;-79
2021/11/20 09:55:00;;;;;;;13.00;9.37;;;8.20;99.90;;;;;;5111895;28;20199;-79
2021/11/20 09:57:30;;;;;;;14.03;10.37;;;8.20;99.90;;;;;;5093504;28;20636;-78
2021/11/20 10:00:04;;;;;;;19.07;17.37;;;8.30;99.90;;;;;;5111878;28;20213;-79
2021/11/20 10:02:51;;;;;;;22.03;20.23;;;8.40;99.90;;;;;;5110801;27;20220;-79
2021/11/20 10:05:21;;;;;;;22.33;20.53;;;8.40;99.90;;;;;;5106701;28;20346;-79
2021/11/20 10:07:51;;;;;;;21.07;19.27;;;8.40;99.90;;;;;;5112520;28;20720;-79
2021/11/20 10:10:22;;;;;;;20.90;19.20;;;8.40;99.90;;;;;;5112913;28;20191;-77
2021/11/20 10:12:52;;;;;;;21.37;19.67;;;8.40;99.90;;;;;;5093406;28;20784;-79
2021/11/20 10:15:24;;;;;;;24.47;22.67;;;8.40;99.90;;;;;;5110611;28;20599;-79
2021/11/20 10:17:56;;;;;;;20.50;18.97;;;8.50;99.90;;;;;;5108448;28;20254;-79
2021/11/20 10:20:40;;;;;;;17.73;16.30;;;8.50;99.90;;;;;;5083975;28;20271;-79
2021/11/20 10:23:29;;;;;;;18.17;16.67;;;8.50;99.90;;;;;;5091194;28;20231;-79
2021/11/20 10:26:13;;;;;;;17.53;16.13;;;8.50;99.90;;;;;;5119790;27;20571;-79
2021/11/20 10:28:51;;;;;;;18.17;16.73;;;8.50;99.90;;;;;;5101619;28;20204;-79
2021/11/20 10:31:21;;;;;;;18.60;17.20;;;8.50;99.90;;;;;;5094013;28;20200;-79
2021/11/20 10:34:06;;;;;;;22.50;20.90;;;8.40;99.90;;;;;;5116434;27;20734;-79
2021/11/20 10:36:37;;;;;;;16.50;15.30;;;8.50;99.90;;;;;;5108734;28;20216;-79
2021/11/20 10:39:09;;;;;;;16.23;15.03;;;8.70;99.90;;;;;;5110412;28;20197;-79
2021/11/20 10:41:38;;;;;;;16.37;15.30;;;8.70;99.90;;;;;;5092411;28;20250;-78
2021/11/20 10:44:18;;;;;;;17.77;16.77;;;8.70;99.90;;;;;;5092137;28;20189;-78
2021/11/20 10:46:55;;;;;;;14.67;13.57;;;8.80;99.90;;;;;;5091406;28;20245;-79
2021/11/20 10:49:49;;;;;;;13.80;13.00;;;8.90;99.90;;;;;;5110537;28;20193;-80
2021/11/20 10:52:27;;;;;;;14.27;13.37;;;9.00;99.90;;;;;;5102563;28;20221;-80
2021/11/20 10:55:16;;;;;;;14.13;13.27;;;9.00;99.90;;;;;;5090627;28;20738;-79
2021/11/20 10:58:13;;;;;;;13.57;12.77;;;9.00;99.90;;;;;;5108970;28;20197;-80
2021/11/20 11:01:17;;;;;;;13.97;13.07;;;9.10;99.90;;;;;;5091316;27;20220;-79
2021/11/20 11:03:46;;;;;;;13.33;12.30;;;9.10;99.90;;;;;;5112788;27;20679;-78
2021/11/20 11:06:49;;;;;;;12.63;11.87;;;9.10;99.90;;;;;;5084527;28;20694;-77
2021/11/20 11:09:39;;;;;;;12.77;11.87;;;9.30;99.90;;;;;;5007503;28;20203;-78
2021/11/20 11:12:13;;;;;;;13.47;12.67;;;9.20;99.90;;;;;;5101463;28;20233;-79
2021/11/20 11:15:08;;;;;;;13.10;12.37;;;9.20;99.90;;;;;;5115773;28;20688;-79
2021/11/20 11:18:23;;;;;;;13.00;12.20;;;9.20;99.90;;;;;;5099440;27;20259;-79
2021/11/20 11:21:24;;;;;;;13.30;12.30;;;9.20;99.90;;;;;;5095178;28;20210;-78
2021/11/20 11:24:09;;;;;;;12.57;11.87;;;9.30;99.90;;;;;;5102464;27;20657;-78
2021/11/20 11:26:40;;;;;;;12.63;11.87;;;9.30;99.90;;;;;;5110915;27;20185;-78
2021/11/20 11:29:17;;;;;;;12.73;11.93;;;9.30;99.90;;;;;;5115876;27;20544;-78
2021/11/20 11:31:44;;;;;;;12.90;12.10;;;9.20;99.90;;;;;;5103515;28;20270;-78
2021/11/20 11:34:20;;;;;;;13.37;12.57;;;9.20;99.90;;;;;;5091802;28;20201;-79
2021/11/20 11:37:05;;;;;;;13.30;12.50;;;9.20;99.90;;;;;;5108269;27;20199;-79
2021/11/20 11:39:41;;;;;;;13.13;12.33;;;9.10;99.90;;;;;;5090248;27;20217;-79
2021/11/20 11:42:25;;;;;;;13.70;12.80;;;9.10;99.90;;;;;;5094118;27;20221;-79
2021/11/20 11:44:59;;;;;;;13.67;12.80;;;9.10;99.90;;;;;;5116172;27;20253;-79
2021/11/20 11:47:30;;;;;;;13.20;12.40;;;9.10;99.90;;;;;;5093666;28;20556;-79
2021/11/20 11:50:21;;;;;;;14.53;13.63;;;9.10;99.90;;;;;;5120592;27;20193;-79
2021/11/20 11:52:56;;;;;;;14.20;13.20;;;9.10;99.90;;;;;;5096189;27;20319;-79
2021/11/20 11:55:55;;;;;;;13.80;12.90;;;9.20;99.90;;;;;;5123999;27;20204;-79
2021/11/20 11:58:35;;;;;;;14.70;13.67;;;9.20;99.90;;;;;;5127358;27;20242;-80
2021/11/20 12:01:05;;;;;;;13.33;12.43;;;9.30;99.90;;;;;;5091097;28;20290;-80
2021/11/20 12:03:36;;;;;;;14.33;13.33;;;9.40;99.90;;;;;;5089188;27;20216;-80
2021/11/20 12:06:35;;;;;;;14.33;13.40;;;9.40;99.90;;;;;;5122490;27;20205;-80
2021/11/20 12:09:05;;;;;;;14.73;13.73;;;9.40;99.90;;;;;;5096736;28;20202;-80
2021/11/20 12:11:37;;;;;;;15.07;13.87;;;9.50;99.90;;;;;;5102904;27;20201;-80
2021/11/20 12:14:17;;;;;;;14.40;13.37;;;9.50;99.90;;;;;;5089773;28;20198;-80
2021/11/20 12:16:52;;;;;;;14.50;13.50;;;9.60;99.90;;;;;;5092796;28;20204;-80
2021/11/20 12:19:43;;;;;;;15.07;13.87;;;9.60;99.90;;;;;;5119234;27;20197;-80
2021/11/20 12:22:20;;;;;;;14.27;13.27;;;9.60;99.90;;;;;;5095517;28;20616;-80
2021/11/20 12:24:52;;;;;;;14.60;13.50;;;9.60;99.90;;;;;;5105453;28;20271;-80
2021/11/20 12:27:31;;;;;;;14.70;13.70;;;9.60;99.90;;;;;;5128465;27;20210;-80
2021/11/20 12:30:26;;;;;;;13.60;12.73;;;9.60;99.90;;;;;;5114194;28;20197;-80
2021/11/20 12:33:23;;;;;;;14.57;13.57;;;9.60;99.90;;;;;;5113546;28;20217;-78
2021/11/20 12:36:13;;;;;;;14.47;13.50;;;9.70;99.90;;;;;;5128918;27;20203;-79
2021/11/20 12:38:57;;;;;;;13.77;12.87;;;9.60;99.90;;;;;;5092697;28;20216;-79
2021/11/20 12:41:41;;;;;;;13.77;12.80;;;9.50;99.90;;;;;;5120077;27;20261;-79
2021/11/20 12:44:40;;;;;;;14.40;13.40;;;9.60;99.90;;;;;;5103322;27;20657;-79
2021/11/20 12:47:38;;;;;;;14.10;13.10;;;9.60;99.90;;;;;;5115115;27;20300;-79
2021/11/20 12:50:10;;;;;;;13.30;12.50;;;9.60;99.90;;;;;;5118272;27;20188;-79
2021/11/20 12:52:54;;;;;;;13.87;12.87;;;9.70;99.90;;;;;;5110944;27;20286;-80
2021/11/20 12:55:41;;;;;;;12.93;12.10;;;9.70;99.90;;;;;;5127278;27;20558;-80
2021/11/20 12:58:13;;;;;;;13.13;12.33;;;9.80;99.90;;;;;;5128671;27;20193;-80
2021/11/20 13:00:42;;;;;;;13.00;12.10;;;9.70;99.90;;;;;;5093557;28;20259;-80
2021/11/20 13:03:28;;;;;;;12.73;11.93;;;9.70;99.90;;;;;;5092383;28;20788;-80
2021/11/20 13:05:58;;;;;;;12.90;12.10;;;9.70;99.90;;;;;;5093345;28;20248;-80
2021/11/20 13:08:27;;;;;;;13.50;12.60;;;9.70;99.90;;;;;;5119066;27;20198;-80
2021/11/20 13:11:08;;;;;;;12.80;12.00;;;9.70;99.90;;;;;;5096284;28;20642;-80
2021/11/20 13:13:41;;;;;;;13.20;12.30;;;9.80;99.90;;;;;;5098463;27;20220;-80